Time;durP1;ratioP1;P1;durP2;ratioP2;P2;SDS_P1;SDS_P2;PMS_P1;PMS_P2;Temp;Humidity;BMP_temperature;BMP_pressure;BME280_temperature;BME280_humidity;BME280_pressure;Samples;Min_cycle;Max_cycle;Signal;HPM_P1;HPM_P2
2022/09/05 00:04:39;;;;;;;12.98;11.88;;;;;;;14.97;100.00;102112.28;10376251;28;20058;-81
2022/09/05 00:09:50;;;;;;;1999.90;999.90;;;;;;;15.00;100.00;102112.38;10361905;28;20082;-81
2022/09/05 00:15:17;;;;;;;34.92;32.75;;;;;;;14.80;100.00;102114.41;10358280;28;20058;-80
2022/09/05 00:20:32;;;;;;;37.42;22.40;;;;;;;14.97;100.00;102091.53;10347429;28;20054;-80
2022/09/05 00:26:21;;;;;;;1999.90;999.90;;;;;;;14.84;100.00;102098.97;10372288;28;20038;-81
2022/09/05 00:31:39;;;;;;;1999.90;999.90;;;;;;;14.66;100.00;102107.13;10355119;28;20062;-80
2022/09/05 00:36:57;;;;;;;3.10;2.90;;;;;;;14.79;100.00;102113.53;10384958;28;20113;-81
2022/09/05 00:42:06;;;;;;;269.27;246.70;;;;;;;14.79;100.00;102107.47;10357695;28;20106;-81
2022/09/05 00:47:47;;;;;;;1999.90;999.90;;;;;;;14.67;100.00;102134.81;10369675;28;20140;-78
2022/09/05 00:53:18;;;;;;;1.02;1.02;;;;;;;14.65;100.00;102135.56;10369176;28;20065;-78
2022/09/05 00:58:45;;;;;;;1999.90;999.90;;;;;;;14.52;100.00;102127.44;10374514;28;20095;-78
2022/09/05 01:04:03;;;;;;;570.47;39.90;;;;;;;14.41;100.00;102123.63;10368731;28;20090;-78
2022/09/05 01:09:13;;;;;;;0.10;0.10;;;;;;;14.30;100.00;102112.94;10354186;28;20070;-78
2022/09/05 01:14:43;;;;;;;0.22;0.22;;;;;;;14.22;100.00;102119.66;10358482;28;20050;-78
2022/09/05 01:20:26;;;;;;;0.30;0.28;;;;;;;14.37;100.00;102114.03;10369093;28;20112;-78
2022/09/05 01:26:09;;;;;;;0.63;0.57;;;;;;;14.10;100.00;102086.47;10367406;28;20053;-78
2022/09/05 01:31:22;;;;;;;1.00;0.90;;;;;;;14.07;100.00;102094.13;10372996;28;20390;-78
2022/09/05 01:36:43;;;;;;;0.63;0.60;;;;;;;13.92;100.00;102105.78;10350080;28;20140;-78
2022/09/05 01:41:59;;;;;;;0.80;0.73;;;;;;;13.94;100.00;102104.13;10366183;28;20099;-78
2022/09/05 01:47:28;;;;;;;0.25;0.25;;;;;;;13.61;100.00;102103.94;10345808;28;20069;-78
2022/09/05 01:52:50;;;;;;;0.30;0.30;;;;;;;13.81;100.00;102120.13;10380570;28;20043;-78
2022/09/05 01:58:37;;;;;;;1.38;0.98;;;;;;;13.84;100.00;102140.06;10366995;28;20081;-77
2022/09/05 02:03:50;;;;;;;1.23;0.50;;;;;;;13.60;100.00;102131.50;10356666;28;20050;-78
2022/09/05 02:09:15;;;;;;;0.88;0.50;;;;;;;13.63;100.00;102139.41;10372636;28;20084;-77
2022/09/05 02:14:22;;;;;;;713.15;324.20;;;;;;;13.61;100.00;102151.41;10374137;28;20106;-77
2022/09/05 02:19:46;;;;;;;1999.90;999.90;;;;;;;13.62;100.00;102178.19;10342091;28;20074;-77
2022/09/05 02:25:03;;;;;;;1999.90;999.90;;;;;;;13.50;100.00;102178.66;10372829;28;20054;-77
2022/09/05 02:30:40;;;;;;;1999.90;999.90;;;;;;;13.49;100.00;102182.94;10365822;28;20057;-77
2022/09/05 02:36:12;;;;;;;1999.90;999.90;;;;;;;13.26;100.00;102184.69;10367097;28;20054;-77
2022/09/05 02:41:31;;;;;;;1999.90;999.90;;;;;;;13.24;100.00;102170.81;10369860;28;20096;-77
2022/09/05 02:47:03;;;;;;;1999.90;999.90;;;;;;;13.17;100.00;102154.22;10358832;28;20057;-77
2022/09/05 02:52:08;;;;;;;2.38;1.50;;;;;;;13.21;100.00;102149.13;10366418;28;20244;-78
2022/09/05 02:57:57;;;;;;;0.45;0.40;;;;;;;12.87;100.00;102143.63;10358631;28;20458;-76
2022/09/05 03:03:25;;;;;;;107.25;81.70;;;;;;;12.96;100.00;102146.56;10362254;28;20052;-78
2022/09/05 03:08:36;;;;;;;1999.90;999.90;;;;;;;13.04;100.00;102145.94;10358290;28;20097;-78
2022/09/05 03:13:56;;;;;;;1.30;0.52;;;;;;;12.89;100.00;102131.63;10363124;28;20060;-78
2022/09/05 03:19:36;;;;;;;1.58;1.48;;;;;;;12.87;100.00;102138.44;10381365;28;20058;-78
2022/09/05 03:25:23;;;;;;;1.10;0.80;;;;;;;12.85;100.00;102140.09;10356862;28;20078;-78
2022/09/05 03:31:11;;;;;;;0.50;0.50;;;;;;;12.83;100.00;102136.59;10376004;28;20065;-78
2022/09/05 03:36:55;;;;;;;30.27;28.60;;;;;;;12.80;100.00;102152.88;10346346;28;20045;-77
2022/09/05 03:42:11;;;;;;;1999.90;999.90;;;;;;;12.81;100.00;102161.50;10339439;28;20050;-77
2022/09/05 03:47:32;;;;;;;1999.90;999.90;;;;;;;12.81;100.00;102169.28;10344716;28;20105;-78
2022/09/05 03:53:01;;;;;;;1999.90;999.90;;;;;;;12.62;100.00;102173.75;10344765;28;20066;-78
2022/09/05 03:58:45;;;;;;;87.85;8.90;;;;;;;12.70;100.00;102185.25;10309112;28;20046;-78
2022/09/05 04:04:11;;;;;;;1.73;1.13;;;;;;;12.59;100.00;102185.66;10340228;28;20056;-78
2022/09/05 04:09:55;;;;;;;0.93;0.50;;;;;;;12.33;100.00;102196.75;10338080;28;20078;-78
2022/09/05 04:15:18;;;;;;;0.80;0.65;;;;;;;12.26;100.00;102189.59;10302242;28;20070;-78
2022/09/05 04:20:37;;;;;;;0.70;0.60;;;;;;;12.37;100.00;102171.91;10313372;28;20121;-78
2022/09/05 04:25:58;;;;;;;0.40;0.40;;;;;;;12.17;100.00;102184.94;10329373;28;20774;-78
2022/09/05 04:31:42;;;;;;;1.15;0.85;;;;;;;12.25;100.00;102190.41;10312767;28;20069;-78
2022/09/05 04:36:57;;;;;;;1.55;1.13;;;;;;;12.35;100.00;102189.09;10292523;28;20065;-78
2022/09/05 04:42:18;;;;;;;1.13;1.02;;;;;;;12.31;100.00;102198.44;10343308;28;20073;-79
2022/09/05 04:47:51;;;;;;;1.30;1.02;;;;;;;12.36;100.00;102194.31;10351177;28;20058;-77
2022/09/05 04:53:07;;;;;;;1.55;1.02;;;;;;;12.30;100.00;102204.41;10316971;28;20455;-78
2022/09/05 04:58:55;;;;;;;1.65;1.23;;;;;;;12.36;100.00;102212.41;10306374;28;20201;-78
2022/09/05 05:04:21;;;;;;;1.17;0.85;;;;;;;12.30;100.00;102222.50;10301869;28;20054;-78
2022/09/05 05:09:55;;;;;;;1.70;1.33;;;;;;;12.25;100.00;102223.13;10321732;28;20050;-78
2022/09/05 05:15:21;;;;;;;1.92;1.13;;;;;;;12.17;100.00;102221.13;10313210;28;20082;-77
2022/09/05 05:21:04;;;;;;;1.88;1.58;;;;;;;12.24;100.00;102213.63;10340932;28;20451;-77
2022/09/05 05:26:44;;;;;;;4.07;2.55;;;;;;;12.34;100.00;102214.03;10328059;28;20065;-78
2022/09/05 05:31:52;;;;;;;2.67;1.97;;;;;;;12.49;100.00;102218.03;10332916;28;20054;-78
2022/09/05 05:36:59;;;;;;;2.13;1.50;;;;;;;12.56;100.00;102209.72;10335427;28;20064;-79
2022/09/05 05:42:02;;;;;;;1.52;1.08;;;;;;;12.72;100.00;102207.72;10346551;28;20132;-77
2022/09/05 05:47:34;;;;;;;1.75;1.15;;;;;;;12.76;100.00;102222.53;10334315;28;20050;-78
2022/09/05 05:53:04;;;;;;;2.25;1.38;;;;;;;12.94;100.00;102238.72;10329202;28;20058;-80
2022/09/05 05:58:28;;;;;;;2.05;1.48;;;;;;;13.18;100.00;102223.22;10306669;28;20061;-79
2022/09/05 06:03:51;;;;;;;1.90;1.38;;;;;;;13.50;100.00;102225.25;10314252;28;20544;-78
2022/09/05 06:09:23;;;;;;;;;;;;;;;13.90;100.00;102228.31;10353586;28;20049;-78
2022/09/05 06:15:13;;;;;;;1.50;1.20;;;;;;;14.95;100.00;102221.25;10343737;28;19933;-77
2022/09/05 06:21:02;;;;;;;3.15;1.60;;;;;;;15.80;100.00;102184.53;10352564;28;20073;-78
2022/09/05 06:26:37;;;;;;;6.68;2.55;;;;;;;16.58;100.00;102105.69;10310151;28;20101;-78
2022/09/05 06:32:11;;;;;;;2.03;1.42;;;;;;;17.08;100.00;102066.78;10351869;28;20054;-79
2022/09/05 06:37:40;;;;;;;2.88;2.40;;;;;;;17.70;100.00;102046.03;10325769;28;20529;-78
2022/09/05 06:43:03;;;;;;;917.83;311.17;;;;;;;18.17;100.00;102026.69;10351350;28;20575;-78
2022/09/05 06:48:47;;;;;;;5.97;2.47;;;;;;;19.05;100.00;102008.47;10334406;28;20108;-78
2022/09/05 06:54:32;;;;;;;3.67;2.60;;;;;;;20.10;100.00;101993.44;10330788;28;20132;-78
2022/09/05 07:00:21;;;;;;;3.03;1.20;;;;;;;20.78;100.00;101977.91;10348477;28;20133;-78
2022/09/05 07:05:53;;;;;;;1.83;1.33;;;;;;;21.11;100.00;101963.03;10341786;28;20095;-79
2022/09/05 07:11:06;;;;;;;1.55;0.93;;;;;;;21.61;100.00;101960.38;10305076;28;20058;-78
2022/09/05 07:16:28;;;;;;;2.10;1.45;;;;;;;21.86;100.00;101962.00;10331441;28;20066;-78
2022/09/05 07:21:47;;;;;;;1.65;0.93;;;;;;;22.45;100.00;101956.44;10340247;28;20042;-79
2022/09/05 07:26:52;;;;;;;0.93;0.73;;;;;;;22.25;100.00;101968.81;10343748;28;20050;-79
2022/09/05 07:31:58;;;;;;;1.88;1.42;;;;;;;22.86;100.00;101966.66;10338483;28;20077;-79
2022/09/05 07:37:22;;;;;;;2.13;1.23;;;;;;;22.64;100.00;101962.44;10336367;28;20057;-79
2022/09/05 07:42:59;;;;;;;0.80;0.60;;;;;;;23.56;100.00;101953.72;10339532;28;20073;-79
2022/09/05 07:48:18;;;;;;;1.90;0.75;;;;;;;23.83;100.00;101941.97;10326702;28;20058;-79
2022/09/05 07:53:24;;;;;;;1.80;0.70;;;;;;;23.88;100.00;101947.16;10327084;28;20060;-78
2022/09/05 07:58:50;;;;;;;1.20;0.63;;;;;;;24.62;100.00;101935.56;10322717;28;20088;-79
2022/09/05 08:03:56;;;;;;;0.40;0.38;;;;;;;24.81;100.00;101927.41;10318480;28;20502;-80
2022/09/05 08:09:12;;;;;;;1.20;0.63;;;;;;;25.63;100.00;101928.47;10333475;28;20054;-79
2022/09/05 08:14:58;;;;;;;278.75;44.95;;;;;;;26.10;100.00;101917.84;10349138;28;20109;-79
2022/09/05 08:20:27;;;;;;;24.00;22.35;;;;;;;26.17;99.15;101919.41;10327054;28;20058;-79
2022/09/05 08:25:38;;;;;;;2.05;1.75;;;;;;;26.80;97.05;101917.00;10346348;28;20145;-79
2022/09/05 08:31:06;;;;;;;207.45;46.42;;;;;;;26.85;94.25;101915.09;10331805;28;20057;-79
2022/09/05 08:36:15;;;;;;;0.75;0.32;;;;;;;27.16;87.66;101919.56;10327524;28;20062;-79
2022/09/05 08:41:23;;;;;;;0.30;0.30;;;;;;;27.19;89.95;101915.94;10332978;28;20498;-80
2022/09/05 08:47:00;;;;;;;3.60;0.77;;;;;;;27.56;80.88;101914.91;10345452;28;20139;-79
2022/09/05 08:52:27;;;;;;;1192.85;522.65;;;;;;;27.22;80.86;101916.72;10310109;28;20373;-78
2022/09/05 08:57:45;;;;;;;1999.90;999.90;;;;;;;28.14;74.80;101917.59;10299304;28;20053;-77
2022/09/05 09:03:12;;;;;;;0.63;0.63;;;;;;;28.16;71.60;101917.53;10302323;28;20043;-78
2022/09/05 09:08:21;;;;;;;0.38;0.35;;;;;;;28.54;71.46;101906.59;10291325;28;20069;-79
2022/09/05 09:13:51;;;;;;;4.43;0.55;;;;;;;28.33;61.58;101907.25;10308090;28;20085;-78
2022/09/05 09:19:01;;;;;;;0.00;0.00;;;;;;;28.50;57.67;101913.78;10325575;28;20531;-78
2022/09/05 09:24:28;;;;;;;0.28;0.17;;;;;;;29.66;60.56;101900.84;10329208;28;20450;-77
2022/09/05 09:29:38;;;;;;;0.43;0.28;;;;;;;29.33;55.79;101903.88;10321330;28;20050;-77
2022/09/05 09:34:49;;;;;;;291.60;51.58;;;;;;;29.34;48.65;101901.16;10328078;28;20053;-77
2022/09/05 09:40:21;;;;;;;24.80;2.30;;;;;;;29.44;52.80;101902.53;10315946;28;20521;-77
2022/09/05 09:45:52;;;;;;;0.10;0.10;;;;;;;29.90;53.55;101894.56;10312587;28;20053;-78
2022/09/05 09:51:17;;;;;;;0.32;0.20;;;;;;;29.99;48.97;101893.34;10330509;28;20081;-78
2022/09/05 09:56:40;;;;;;;0.30;0.20;;;;;;;30.60;48.44;101878.44;10325201;28;20058;-78
2022/09/05 10:02:23;;;;;;;0.28;0.20;;;;;;;29.96;49.29;101893.47;10334922;28;20042;-78
2022/09/05 10:08:25;;;;;;;0.45;0.20;;;;;;;30.72;45.32;101873.53;10321946;28;20134;-78
2022/09/05 10:14:08;;;;;;;0.30;0.30;;;;;;;30.74;43.73;101876.97;10332345;28;20552;-77
2022/09/05 10:19:42;;;;;;;0.28;0.28;;;;;;;30.64;41.71;101868.53;10310988;28;20524;-78
2022/09/05 10:25:34;;;;;;;9.43;0.80;;;;;;;31.25;41.17;101859.59;10314812;28;20038;-76
2022/09/05 10:30:45;;;;;;;0.10;0.10;;;;;;;29.68;39.95;101873.28;10334971;28;20551;-79
2022/09/05 10:36:28;;;;;;;0.20;0.00;;;;;;;29.84;42.71;101864.72;10340764;28;20115;-76
2022/09/05 10:41:58;;;;;;;0.20;0.10;;;;;;;31.46;41.02;101851.56;10348295;28;20141;-77
2022/09/05 10:47:22;;;;;;;0.45;0.32;;;;;;;30.86;36.47;101856.00;10320729;28;20101;-78
2022/09/05 10:52:48;;;;;;;0.60;0.38;;;;;;;30.39;37.36;101854.47;10337453;28;20054;-77
2022/09/05 10:58:15;;;;;;;0.00;0.00;;;;;;;30.59;34.46;101855.44;10335433;28;20050;-78
2022/09/05 11:03:54;;;;;;;1.08;0.35;;;;;;;31.61;37.04;101845.47;10319897;28;20706;-76
2022/09/05 11:09:08;;;;;;;3.47;0.22;;;;;;;31.71;32.88;101839.72;10335258;28;20459;-78
2022/09/05 11:14:28;;;;;;;0.17;0.03;;;;;;;31.85;33.72;101837.25;10327675;28;20142;-77
2022/09/05 11:19:43;;;;;;;0.25;0.20;;;;;;;30.98;33.03;101838.63;10328324;28;20568;-77
2022/09/05 11:25:05;;;;;;;0.00;0.00;;;;;;;31.71;32.17;101827.28;10329708;28;20066;-77
2022/09/05 11:30:22;;;;;;;0.10;0.10;;;;;;;30.07;32.58;101835.44;10329666;28;20050;-78
2022/09/05 11:35:39;;;;;;;0.25;0.13;;;;;;;30.97;32.97;101830.72;10316003;28;20055;-77
2022/09/05 11:41:26;;;;;;;0.45;0.30;;;;;;;31.08;32.89;101830.22;10333232;28;20568;-76
2022/09/05 11:46:35;;;;;;;0.00;0.00;;;;;;;30.65;34.65;101820.59;10326681;28;20082;-77
2022/09/05 11:51:53;;;;;;;0.00;0.00;;;;;;;31.01;35.64;101813.66;10324610;28;20053;-78
2022/09/05 11:57:31;;;;;;;0.00;0.00;;;;;;;30.98;31.83;101814.69;10336957;28;20355;-77
2022/09/05 12:02:56;;;;;;;0.17;0.13;;;;;;;30.51;32.16;101815.03;10320621;28;20085;-77
2022/09/05 12:08:19;;;;;;;0.00;0.00;;;;;;;31.43;31.60;101809.94;10331143;28;20051;-78
2022/09/05 12:13:46;;;;;;;0.20;0.13;;;;;;;31.05;32.04;101807.28;10324388;28;20050;-76
2022/09/05 12:19:17;;;;;;;0.22;0.10;;;;;;;30.55;32.88;101808.66;10325947;28;20089;-76
2022/09/05 12:24:28;;;;;;;0.10;0.10;;;;;;;30.42;33.06;101804.78;10325100;28;20090;-76
2022/09/05 12:29:56;;;;;;;0.40;0.40;;;;;;;30.45;32.40;101800.19;10325735;28;20286;-76
2022/09/05 12:35:02;;;;;;;0.00;0.00;;;;;;;29.89;33.90;101791.88;10330912;28;20478;-77
2022/09/05 12:40:29;;;;;;;0.15;0.15;;;;;;;30.41;33.27;101808.38;10338630;28;20082;-77
2022/09/05 12:46:00;;;;;;;0.75;0.52;;;;;;;30.23;33.18;101798.44;10329923;28;20149;-77
2022/09/05 12:51:15;;;;;;;0.65;0.47;;;;;;;30.26;31.00;101799.25;10329166;28;20050;-77
2022/09/05 12:57:01;;;;;;;0.30;0.28;;;;;;;30.59;33.45;101785.44;10318677;28;20486;-78
2022/09/05 13:02:30;;;;;;;0.40;0.17;;;;;;;30.14;32.88;101787.34;10313849;28;20140;-76
2022/09/05 13:07:57;;;;;;;0.32;0.20;;;;;;;30.37;32.18;101787.22;10321821;28;20061;-76
2022/09/05 13:13:06;;;;;;;0.32;0.00;;;;;;;30.12;30.54;101781.25;10307628;28;20068;-75
2022/09/05 13:18:39;;;;;;;0.10;0.10;;;;;;;30.34;30.83;101770.53;10318779;28;20583;-76
2022/09/05 13:24:10;;;;;;;0.00;0.00;;;;;;;30.68;31.59;101769.94;10329240;28;20449;-77
2022/09/05 13:29:20;;;;;;;0.00;0.00;;;;;;;30.21;31.88;101764.91;10324319;28;20514;-77
2022/09/05 13:34:24;;;;;;;0.08;0.00;;;;;;;29.72;31.32;101774.00;10320423;28;20052;-77
2022/09/05 13:40:02;;;;;;;0.10;0.10;;;;;;;29.99;31.09;101764.97;10334930;28;20085;-75
2022/09/05 13:45:07;;;;;;;0.00;0.00;;;;;;;29.64;31.25;101760.16;10327505;28;20059;-76
2022/09/05 13:50:25;;;;;;;0.20;0.20;;;;;;;29.42;31.66;101761.03;10327545;28;20050;-76
2022/09/05 13:55:47;;;;;;;0.30;0.20;;;;;;;30.17;30.89;101736.75;10337259;28;20051;-75
2022/09/05 14:01:02;;;;;;;0.17;0.00;;;;;;;29.85;30.66;101734.53;10304357;28;20297;-76
2022/09/05 14:06:43;;;;;;;0.10;0.10;;;;;;;30.31;30.61;101733.44;10331819;28;20373;-76
2022/09/05 14:12:10;;;;;;;0.10;0.10;;;;;;;29.52;31.67;101735.00;10322665;28;20057;-76
2022/09/05 14:17:15;;;;;;;0.20;0.13;;;;;;;30.11;30.04;101731.69;10317217;28;20108;-75
2022/09/05 14:23:07;;;;;;;0.52;0.15;;;;;;;29.76;30.97;101724.28;10335077;28;20111;-75
2022/09/05 14:28:17;;;;;;;0.00;0.00;;;;;;;30.36;30.73;101724.34;10316745;28;20062;-77
2022/09/05 14:33:59;;;;;;;0.57;0.50;;;;;;;30.17;29.95;101721.66;10329309;28;20074;-77
2022/09/05 14:39:38;;;;;;;0.00;0.00;;;;;;;30.23;33.41;101713.41;10313813;28;20077;-76
2022/09/05 14:44:47;;;;;;;0.00;0.00;;;;;;;29.71;29.99;101719.16;10336827;28;20046;-77
2022/09/05 14:49:58;;;;;;;0.00;0.00;;;;;;;30.74;27.98;101709.41;10337536;28;20066;-79
2022/09/05 14:55:02;;;;;;;0.25;0.00;;;;;;;30.44;30.33;101707.19;10320369;28;20525;-76
2022/09/05 15:00:22;;;;;;;0.00;0.00;;;;;;;29.70;30.52;101701.50;10340786;28;20050;-76
2022/09/05 15:05:49;;;;;;;0.10;0.10;;;;;;;29.54;29.86;101701.28;10322649;28;20077;-76
2022/09/05 15:10:54;;;;;;;0.37;0.10;;;;;;;29.38;31.14;101695.72;10320473;28;20050;-77
2022/09/05 15:16:16;;;;;;;0.10;0.10;;;;;;;29.60;31.22;101684.22;10335226;28;20352;-77
2022/09/05 15:21:31;;;;;;;0.13;0.13;;;;;;;29.92;32.10;101684.66;10332409;28;20359;-76
2022/09/05 15:26:50;;;;;;;0.20;0.20;;;;;;;30.05;30.21;101687.66;10339848;28;20058;-76
2022/09/05 15:32:22;;;;;;;0.47;0.20;;;;;;;30.09;30.90;101681.25;10335680;28;20048;-76
2022/09/05 15:37:26;;;;;;;0.00;0.00;;;;;;;29.71;29.04;101678.47;10340684;28;20159;-74
2022/09/05 15:42:34;;;;;;;0.00;0.00;;;;;;;29.33;30.26;101671.19;10336674;28;20402;-75
2022/09/05 15:47:38;;;;;;;0.00;0.00;;;;;;;29.10;29.79;101675.59;10315962;28;20058;-75
2022/09/05 15:52:45;;;;;;;0.15;0.10;;;;;;;28.99;32.31;101669.88;10317188;28;20062;-74
2022/09/05 15:57:59;;;;;;;0.08;0.03;;;;;;;29.00;32.68;101668.94;10313674;28;20061;-76
2022/09/05 16:03:13;;;;;;;0.00;0.00;;;;;;;28.89;33.79;101661.38;10329179;28;20097;-76
2022/09/05 16:08:45;;;;;;;0.13;0.13;;;;;;;28.81;32.52;101664.34;10336724;28;20065;-76
2022/09/05 16:14:22;;;;;;;0.10;0.10;;;;;;;28.79;32.73;101650.28;10335070;28;20137;-76
2022/09/05 16:19:33;;;;;;;0.00;0.00;;;;;;;28.79;35.41;101655.59;10335104;28;20116;-76
2022/09/05 16:25:03;;;;;;;0.10;0.00;;;;;;;28.74;34.49;101646.94;10341708;28;20115;-76
2022/09/05 16:30:05;;;;;;;0.00;0.00;;;;;;;28.49;36.76;101647.00;10355456;28;20514;-76
2022/09/05 16:35:17;;;;;;;0.28;0.15;;;;;;;28.43;35.53;101648.09;10374411;28;20106;-76
2022/09/05 16:40:32;;;;;;;0.05;0.00;;;;;;;28.63;37.01;101636.75;10334280;28;20101;-76
2022/09/05 16:45:39;;;;;;;0.65;0.32;;;;;;;28.40;33.47;101634.97;10340535;28;20564;-76
2022/09/05 16:50:55;;;;;;;0.30;0.30;;;;;;;28.25;36.54;101622.31;10312504;28;20046;-76
2022/09/05 16:56:12;;;;;;;0.45;0.20;;;;;;;28.14;36.49;101626.19;10332668;28;20052;-76
2022/09/05 17:01:47;;;;;;;0.00;0.00;;;;;;;27.76;44.05;101619.59;10312473;28;20513;-76
2022/09/05 17:07:12;;;;;;;0.00;0.00;;;;;;;27.67;38.67;101607.53;10332884;28;20113;-76
2022/09/05 17:12:23;;;;;;;0.00;0.00;;;;;;;27.31;52.60;101602.56;10336353;28;20099;-76
2022/09/05 17:17:36;;;;;;;0.00;0.00;;;;;;;26.91;53.46;101595.03;10333221;28;20092;-76
2022/09/05 17:23:11;;;;;;;0.00;0.00;;;;;;;26.75;52.83;101588.47;10327377;28;20074;-76
2022/09/05 17:28:48;;;;;;;0.10;0.10;;;;;;;26.18;75.40;101591.03;10324076;28;20133;-76
2022/09/05 17:34:17;;;;;;;8.05;1.00;;;;;;;25.61;76.33;101588.16;10338566;28;20049;-76
2022/09/05 17:39:43;;;;;;;0.00;0.00;;;;;;;25.59;68.60;101592.59;10310835;28;20055;-77
2022/09/05 17:44:51;;;;;;;0.10;0.08;;;;;;;24.68;80.39;101582.47;10337745;28;20049;-77
2022/09/05 17:50:26;;;;;;;0.30;0.30;;;;;;;24.36;83.64;101593.66;10339804;28;20050;-76
2022/09/05 17:55:36;;;;;;;0.00;0.00;;;;;;;23.91;81.10;101602.41;10299102;28;20053;-77
2022/09/05 18:00:48;;;;;;;0.15;0.00;;;;;;;23.80;83.19;101599.09;10307085;28;20062;-76
2022/09/05 18:05:52;;;;;;;0.00;0.00;;;;;;;23.46;88.49;101590.03;10328066;28;20108;-76
2022/09/05 18:11:00;;;;;;;0.03;0.03;;;;;;;22.87;97.46;101596.19;10340030;28;20116;-77
2022/09/05 18:16:10;;;;;;;0.00;0.00;;;;;;;22.74;100.00;101595.50;10343574;28;20144;-76
2022/09/05 18:21:13;;;;;;;1.00;0.13;;;;;;;22.61;100.00;101594.81;10308196;28;20050;-76
2022/09/05 18:26:26;;;;;;;0.00;0.00;;;;;;;22.39;100.00;101599.47;10330055;28;20054;-76
2022/09/05 18:31:37;;;;;;;0.00;0.00;;;;;;;22.32;99.57;101590.78;10348152;28;20046;-77
2022/09/05 18:36:44;;;;;;;0.00;0.00;;;;;;;22.14;100.00;101602.34;10322188;28;20138;-76
2022/09/05 18:42:15;;;;;;;1.30;1.10;;;;;;;22.02;100.00;101599.84;10342746;28;20050;-77
2022/09/05 18:47:56;;;;;;;1541.18;754.47;;;;;;;21.45;100.00;101613.47;10338002;28;20522;-77
2022/09/05 18:53:06;;;;;;;1.65;0.32;;;;;;;20.81;100.00;101632.25;10336193;28;20489;-77
2022/09/05 18:58:21;;;;;;;7.82;0.75;;;;;;;20.61;100.00;101638.41;10313823;28;20070;-77
2022/09/05 19:03:29;;;;;;;0.52;0.52;;;;;;;20.39;100.00;101634.13;10327186;28;20532;-77
2022/09/05 19:08:42;;;;;;;0.25;0.20;;;;;;;20.21;100.00;101641.16;10323958;28;20066;-77
2022/09/05 19:13:45;;;;;;;1.00;0.85;;;;;;;19.71;100.00;101635.09;10341386;28;20051;-77
2022/09/05 19:19:06;;;;;;;0.55;0.30;;;;;;;19.51;100.00;101648.16;10305428;28;20567;-77
2022/09/05 19:24:12;;;;;;;0.13;0.10;;;;;;;19.54;100.00;101658.63;10342023;28;20058;-77
2022/09/05 19:29:19;;;;;;;0.00;0.00;;;;;;;19.70;100.00;101640.31;10317513;28;20054;-76
2022/09/05 19:34:43;;;;;;;0.20;0.00;;;;;;;19.33;100.00;101652.50;10321826;28;20069;-77
2022/09/05 19:40:05;;;;;;;0.10;0.10;;;;;;;18.63;100.00;101656.63;10308551;28;20062;-77
2022/09/05 19:45:28;;;;;;;0.95;0.63;;;;;;;18.97;100.00;101655.91;10320247;28;20313;-77
2022/09/05 19:50:56;;;;;;;0.38;0.22;;;;;;;19.20;100.00;101642.91;10318504;28;20078;-77
2022/09/05 19:56:03;;;;;;;0.00;0.00;;;;;;;18.88;100.00;101648.88;10337977;28;20058;-77
2022/09/05 20:01:06;;;;;;;2.10;0.75;;;;;;;18.35;100.00;101651.28;10318834;28;20058;-78
2022/09/05 20:06:23;;;;;;;0.13;0.13;;;;;;;18.28;100.00;101659.03;10334703;28;20117;-78
2022/09/05 20:11:32;;;;;;;0.80;0.80;;;;;;;18.16;100.00;101650.28;10326889;28;20470;-78
2022/09/05 20:16:47;;;;;;;2.55;0.43;;;;;;;18.07;100.00;101651.09;10333639;28;20518;-78
2022/09/05 20:21:50;;;;;;;0.52;0.32;;;;;;;17.83;100.00;101666.53;10316756;28;20066;-78
2022/09/05 20:26:58;;;;;;;4.00;2.05;;;;;;;17.81;100.00;101657.81;10317417;28;20061;-78
2022/09/05 20:32:00;;;;;;;0.10;0.10;;;;;;;17.54;100.00;101648.88;10316284;28;20050;-78
2022/09/05 20:37:06;;;;;;;100.45;4.38;;;;;;;17.47;100.00;101667.94;10324767;28;20105;-78
2022/09/05 20:42:32;;;;;;;0.15;0.15;;;;;;;17.41;100.00;101680.03;10309225;28;20138;-77
2022/09/05 20:47:54;;;;;;;0.10;0.10;;;;;;;17.43;100.00;101678.34;10341938;28;20133;-77
2022/09/05 20:53:21;;;;;;;0.43;0.30;;;;;;;17.59;100.00;101678.50;10299386;28;20474;-78
2022/09/05 20:58:47;;;;;;;0.10;0.10;;;;;;;17.92;100.00;101656.16;10317446;28;20509;-78
2022/09/05 21:04:01;;;;;;;0.15;0.03;;;;;;;17.80;100.00;101663.88;10314732;28;20108;-76
2022/09/05 21:09:12;;;;;;;0.00;0.00;;;;;;;17.50;100.00;101657.56;10347269;28;20489;-77
2022/09/05 21:14:19;;;;;;;0.10;0.10;;;;;;;17.27;100.00;101668.63;10321792;28;20058;-77
2022/09/05 21:19:22;;;;;;;0.10;0.08;;;;;;;17.68;100.00;101662.06;10329359;28;20398;-77
2022/09/05 21:24:23;;;;;;;0.47;0.20;;;;;;;17.81;100.00;101648.25;10309537;28;20053;-77
2022/09/05 21:29:25;;;;;;;0.73;0.35;;;;;;;18.14;100.00;101640.69;10309091;28;20058;-77
2022/09/05 21:34:38;;;;;;;1.05;0.30;;;;;;;17.37;100.00;101662.66;10295522;28;20109;-77
2022/09/05 21:39:50;;;;;;;0.20;0.20;;;;;;;17.39;100.00;101654.84;10317018;28;20124;-77
2022/09/05 21:45:02;;;;;;;0.40;0.38;;;;;;;17.37;100.00;101651.34;10332875;28;20054;-77
2022/09/05 21:50:30;;;;;;;1.70;0.43;;;;;;;17.43;100.00;101657.50;10322929;28;20061;-77
2022/09/05 21:55:34;;;;;;;0.45;0.17;;;;;;;17.47;100.00;101647.09;10308510;28;20494;-77
2022/09/05 22:00:55;;;;;;;0.20;0.20;;;;;;;17.26;100.00;101648.63;10309898;28;20554;-76
2022/09/05 22:05:57;;;;;;;0.10;0.10;;;;;;;17.20;100.00;101648.56;10311849;28;20149;-76
2022/09/05 22:11:11;;;;;;;0.30;0.30;;;;;;;17.01;100.00;101669.22;10327389;28;20226;-78
2022/09/05 22:16:14;;;;;;;0.63;0.52;;;;;;;17.02;100.00;101670.94;10328129;28;20050;-78
2022/09/05 22:21:26;;;;;;;1.95;0.47;;;;;;;17.69;100.00;101649.03;10298867;28;20043;-76
2022/09/05 22:26:38;;;;;;;1.10;0.43;;;;;;;18.48;100.00;101620.03;10301340;28;20317;-78
2022/09/05 22:31:46;;;;;;;0.25;0.13;;;;;;;19.32;100.00;101588.03;10315944;28;20054;-77
2022/09/05 22:36:49;;;;;;;0.75;0.45;;;;;;;19.32;100.00;101589.78;10334868;28;20047;-77
2022/09/05 22:41:51;;;;;;;1.92;0.63;;;;;;;19.30;100.00;101587.19;10338161;28;20054;-77
2022/09/05 22:46:52;;;;;;;0.52;0.25;;;;;;;18.88;100.00;101591.44;10315483;28;20050;-77
2022/09/05 22:51:55;;;;;;;0.30;0.05;;;;;;;18.64;100.00;101598.34;10346212;28;20061;-78
2022/09/05 22:56:56;;;;;;;0.55;0.45;;;;;;;18.78;100.00;101597.50;10327714;28;20108;-78
2022/09/05 23:01:58;;;;;;;0.35;0.10;;;;;;;19.34;100.00;101583.69;10323586;28;20105;-78
2022/09/05 23:07:01;;;;;;;0.15;0.10;;;;;;;19.72;100.00;101595.03;10339386;28;20513;-79
2022/09/05 23:12:03;;;;;;;1.27;0.82;;;;;;;19.91;100.00;101606.34;10317096;28;20105;-78
2022/09/05 23:17:04;;;;;;;0.38;0.25;;;;;;;20.07;100.00;101601.06;10340167;28;20395;-78
2022/09/05 23:22:07;;;;;;;0.40;0.15;;;;;;;20.26;100.00;101622.81;10320583;28;20521;-77
2022/09/05 23:27:08;;;;;;;0.43;0.40;;;;;;;20.24;100.00;101630.69;10326672;28;20062;-77
2022/09/05 23:32:10;;;;;;;0.65;0.52;;;;;;;20.08;100.00;101623.72;10321412;28;20568;-76
2022/09/05 23:37:11;;;;;;;4.57;0.45;;;;;;;20.21;100.00;101635.06;10321254;28;20059;-77
2022/09/05 23:42:13;;;;;;;1.40;1.05;;;;;;;20.04;100.00;101622.00;10311761;28;20457;-77
2022/09/05 23:47:14;;;;;;;0.30;0.28;;;;;;;20.12;100.00;101613.25;10311255;28;20108;-77
2022/09/05 23:52:16;;;;;;;0.20;0.20;;;;;;;20.01;100.00;101607.19;10315102;28;20050;-77
2022/09/05 23:57:21;;;;;;;0.17;0.10;;;;;;;19.91;100.00;101601.13;10315828;28;20091;-77
